メインページ
METAR-TAF:

METAR-TAF

空港 :

オルーミーイェ空港

オルーミーイェ, イラン

緯度: 37-32N, 経度: 045-05E, 海抜: 1297m

現時点の気象観測

当レポートは7分前の18:30(UTC)に作成
西/北西の風 4kt
気温 -1°C
湿度 46%
気圧 1026 hPa
視程10km以上
1,500メートル以下は雲なし、積乱雲なし

METAR: OITR 171830Z 30004KT CAVOK M01/M11 Q1026

時間: 22:07 (18:37 UTC)

予報

当レポートは7時間7分前の11:30(UTC)に作成
予報は17日の 12時(UTC)から 18日の 18時(UTC)まで有効
西の風 8kt
視程: 8000m
高度4000ftの雲はほとんどない

TAF: OITR 171130Z 1712/1818 28008KT 8000 FEW040

4,000以上の空港の気象観測と天気予報(METAR報とTAF報)

利用可能な観測所は地図上に黄色い丸と赤い丸で示す。

丸の上にカーソルを重ねると観測所名を参照できる。

次にクリックすると気象観測と天気予報を参照できる。

マップの切り替え:黒色「×」印の緑ボタンをクリックして拡大、「-」印の緑ボタンをクリックして縮小、緑色の三角印をクリックして隣りの地図に切り替え


METAR-TAF: